sensor_id;sensor_type;location;lat;lon;timestamp;P1;durP1;ratioP1;P2;durP2;ratioP2
53253;SDS011;39148;53.332;6.922;2023-01-28T00:01:05;2.70;;;1.50;;
53253;SDS011;39148;53.332;6.922;2023-01-28T00:03:31;2.60;;;1.60;;
53253;SDS011;39148;53.332;6.922;2023-01-28T00:06:04;2.72;;;1.55;;
53253;SDS011;39148;53.332;6.922;2023-01-28T00:08:31;3.22;;;1.70;;
53253;SDS011;39148;53.332;6.922;2023-01-28T00:11:01;2.90;;;1.48;;
53253;SDS011;39148;53.332;6.922;2023-01-28T00:13:27;2.55;;;1.58;;
53253;SDS011;39148;53.332;6.922;2023-01-28T00:15:54;2.38;;;1.42;;
53253;SDS011;39148;53.332;6.922;2023-01-28T00:18:21;2.45;;;1.23;;
53253;SDS011;39148;53.332;6.922;2023-01-28T00:20:57;2.85;;;1.50;;
53253;SDS011;39148;53.332;6.922;2023-01-28T00:23:30;2.58;;;1.45;;
53253;SDS011;39148;53.332;6.922;2023-01-28T00:26:00;2.70;;;1.50;;
53253;SDS011;39148;53.332;6.922;2023-01-28T00:28:26;2.40;;;1.30;;
53253;SDS011;39148;53.332;6.922;2023-01-28T00:30:52;2.50;;;1.30;;
53253;SDS011;39148;53.332;6.922;2023-01-28T00:33:18;2.55;;;1.13;;
53253;SDS011;39148;53.332;6.922;2023-01-28T00:35:44;2.00;;;1.27;;
53253;SDS011;39148;53.332;6.922;2023-01-28T00:38:11;1.88;;;1.15;;
53253;SDS011;39148;53.332;6.922;2023-01-28T00:40:37;2.45;;;0.90;;
53253;SDS011;39148;53.332;6.922;2023-01-28T00:43:02;1.90;;;1.30;;
53253;SDS011;39148;53.332;6.922;2023-01-28T00:45:28;1.67;;;1.00;;
53253;SDS011;39148;53.332;6.922;2023-01-28T00:47:55;2.78;;;1.20;;
53253;SDS011;39148;53.332;6.922;2023-01-28T00:50:21;2.20;;;1.10;;
53253;SDS011;39148;53.332;6.922;2023-01-28T00:52:47;1.90;;;1.00;;
53253;SDS011;39148;53.332;6.922;2023-01-28T00:55:13;1.83;;;1.10;;
53253;SDS011;39148;53.332;6.922;2023-01-28T00:57:39;2.25;;;1.05;;
53253;SDS011;39148;53.332;6.922;2023-01-28T01:00:05;1.80;;;1.20;;
53253;SDS011;39148;53.332;6.922;2023-01-28T01:02:31;1.60;;;0.90;;
53253;SDS011;39148;53.332;6.922;2023-01-28T01:04:57;1.92;;;1.10;;
53253;SDS011;39148;53.332;6.922;2023-01-28T01:07:24;1.95;;;1.00;;
53253;SDS011;39148;53.332;6.922;2023-01-28T01:10:05;1.63;;;0.75;;
53253;SDS011;39148;53.332;6.922;2023-01-28T01:12:31;2.17;;;0.90;;
53253;SDS011;39148;53.332;6.922;2023-01-28T01:14:57;3.40;;;0.98;;
53253;SDS011;39148;53.332;6.922;2023-01-28T01:17:23;2.70;;;0.95;;
53253;SDS011;39148;53.332;6.922;2023-01-28T01:19:49;1.30;;;0.77;;
53253;SDS011;39148;53.332;6.922;2023-01-28T01:22:15;2.88;;;0.93;;
53253;SDS011;39148;53.332;6.922;2023-01-28T01:24:41;1.55;;;0.90;;
53253;SDS011;39148;53.332;6.922;2023-01-28T01:27:07;2.58;;;0.90;;
53253;SDS011;39148;53.332;6.922;2023-01-28T01:29:33;1.55;;;0.90;;
53253;SDS011;39148;53.332;6.922;2023-01-28T01:31:59;2.85;;;0.93;;
53253;SDS011;39148;53.332;6.922;2023-01-28T01:34:25;2.17;;;1.15;;
53253;SDS011;39148;53.332;6.922;2023-01-28T01:36:51;2.22;;;1.08;;
53253;SDS011;39148;53.332;6.922;2023-01-28T01:39:17;2.53;;;1.05;;
53253;SDS011;39148;53.332;6.922;2023-01-28T01:41:43;3.15;;;1.10;;
53253;SDS011;39148;53.332;6.922;2023-01-28T01:46:54;3.45;;;1.42;;
53253;SDS011;39148;53.332;6.922;2023-01-28T01:49:21;2.67;;;1.10;;
53253;SDS011;39148;53.332;6.922;2023-01-28T01:51:49;2.40;;;1.13;;
53253;SDS011;39148;53.332;6.922;2023-01-28T01:54:16;2.38;;;1.00;;
53253;SDS011;39148;53.332;6.922;2023-01-28T01:56:43;2.40;;;1.30;;
53253;SDS011;39148;53.332;6.922;2023-01-28T01:59:14;1.95;;;1.10;;
53253;SDS011;39148;53.332;6.922;2023-01-28T02:01:41;2.25;;;1.23;;
53253;SDS011;39148;53.332;6.922;2023-01-28T02:04:11;2.60;;;1.30;;
53253;SDS011;39148;53.332;6.922;2023-01-28T02:06:40;3.67;;;1.40;;
53253;SDS011;39148;53.332;6.922;2023-01-28T02:09:19;1.95;;;1.10;;
53253;SDS011;39148;53.332;6.922;2023-01-28T02:11:46;2.33;;;1.25;;
53253;SDS011;39148;53.332;6.922;2023-01-28T02:14:12;2.03;;;1.30;;
53253;SDS011;39148;53.332;6.922;2023-01-28T02:16:39;2.45;;;1.40;;
53253;SDS011;39148;53.332;6.922;2023-01-28T02:19:05;2.95;;;1.50;;
53253;SDS011;39148;53.332;6.922;2023-01-28T02:31:53;2.42;;;1.35;;
53253;SDS011;39148;53.332;6.922;2023-01-28T02:37:26;3.95;;;1.55;;
53253;SDS011;39148;53.332;6.922;2023-01-28T02:39:56;3.17;;;1.50;;
53253;SDS011;39148;53.332;6.922;2023-01-28T02:42:24;2.35;;;1.13;;
53253;SDS011;39148;53.332;6.922;2023-01-28T02:44:52;3.40;;;1.50;;
53253;SDS011;39148;53.332;6.922;2023-01-28T02:47:18;3.20;;;1.60;;
53253;SDS011;39148;53.332;6.922;2023-01-28T02:50:09;3.72;;;1.73;;
53253;SDS011;39148;53.332;6.922;2023-01-28T02:58:30;4.55;;;1.88;;
53253;SDS011;39148;53.332;6.922;2023-01-28T03:06:43;3.63;;;1.67;;
53253;SDS011;39148;53.332;6.922;2023-01-28T03:09:10;3.03;;;1.80;;
53253;SDS011;39148;53.332;6.922;2023-01-28T03:11:48;3.50;;;1.70;;
53253;SDS011;39148;53.332;6.922;2023-01-28T03:14:34;2.78;;;1.65;;
53253;SDS011;39148;53.332;6.922;2023-01-28T03:17:21;3.47;;;1.70;;
53253;SDS011;39148;53.332;6.922;2023-01-28T03:20:08;3.83;;;1.92;;
53253;SDS011;39148;53.332;6.922;2023-01-28T03:22:53;3.03;;;1.70;;
53253;SDS011;39148;53.332;6.922;2023-01-28T03:25:42;2.22;;;1.50;;
53253;SDS011;39148;53.332;6.922;2023-01-28T03:28:28;3.35;;;1.90;;
53253;SDS011;39148;53.332;6.922;2023-01-28T03:31:14;3.50;;;1.90;;
53253;SDS011;39148;53.332;6.922;2023-01-28T03:34:01;3.33;;;1.88;;
53253;SDS011;39148;53.332;6.922;2023-01-28T03:36:46;3.38;;;1.90;;
53253;SDS011;39148;53.332;6.922;2023-01-28T03:39:16;3.80;;;1.90;;
53253;SDS011;39148;53.332;6.922;2023-01-28T03:41:43;4.38;;;1.90;;
53253;SDS011;39148;53.332;6.922;2023-01-28T03:44:20;2.90;;;1.80;;
53253;SDS011;39148;53.332;6.922;2023-01-28T03:47:04;3.75;;;1.98;;
53253;SDS011;39148;53.332;6.922;2023-01-28T03:49:32;4.20;;;2.20;;
53253;SDS011;39148;53.332;6.922;2023-01-28T03:51:58;4.68;;;2.33;;
53253;SDS011;39148;53.332;6.922;2023-01-28T03:54:25;4.68;;;2.00;;
53253;SDS011;39148;53.332;6.922;2023-01-28T03:56:51;3.50;;;2.17;;
53253;SDS011;39148;53.332;6.922;2023-01-28T03:59:17;4.50;;;2.05;;
53253;SDS011;39148;53.332;6.922;2023-01-28T04:01:43;3.63;;;2.00;;
53253;SDS011;39148;53.332;6.922;2023-01-28T04:04:09;4.05;;;2.15;;
53253;SDS011;39148;53.332;6.922;2023-01-28T04:06:47;4.05;;;2.22;;
53253;SDS011;39148;53.332;6.922;2023-01-28T04:09:13;3.63;;;2.13;;
53253;SDS011;39148;53.332;6.922;2023-01-28T04:11:39;3.80;;;2.17;;
53253;SDS011;39148;53.332;6.922;2023-01-28T04:14:05;3.40;;;1.98;;
53253;SDS011;39148;53.332;6.922;2023-01-28T04:16:31;4.35;;;2.30;;
53253;SDS011;39148;53.332;6.922;2023-01-28T04:18:57;4.35;;;2.30;;
53253;SDS011;39148;53.332;6.922;2023-01-28T04:21:23;3.25;;;2.20;;
53253;SDS011;39148;53.332;6.922;2023-01-28T04:23:49;3.42;;;2.10;;
53253;SDS011;39148;53.332;6.922;2023-01-28T04:26:15;3.95;;;2.30;;
53253;SDS011;39148;53.332;6.922;2023-01-28T04:28:42;3.08;;;2.00;;
53253;SDS011;39148;53.332;6.922;2023-01-28T04:31:08;5.72;;;2.40;;
53253;SDS011;39148;53.332;6.922;2023-01-28T04:33:34;4.28;;;2.15;;
53253;SDS011;39148;53.332;6.922;2023-01-28T04:36:00;5.22;;;2.47;;
53253;SDS011;39148;53.332;6.922;2023-01-28T04:38:26;4.30;;;2.67;;
53253;SDS011;39148;53.332;6.922;2023-01-28T04:40:52;4.53;;;2.33;;
53253;SDS011;39148;53.332;6.922;2023-01-28T04:43:19;4.07;;;2.47;;
53253;SDS011;39148;53.332;6.922;2023-01-28T04:45:45;3.90;;;2.40;;
53253;SDS011;39148;53.332;6.922;2023-01-28T04:48:12;3.42;;;2.10;;
53253;SDS011;39148;53.332;6.922;2023-01-28T04:50:38;5.18;;;2.30;;
53253;SDS011;39148;53.332;6.922;2023-01-28T04:53:04;5.13;;;2.70;;
53253;SDS011;39148;53.332;6.922;2023-01-28T04:55:30;3.50;;;2.20;;
53253;SDS011;39148;53.332;6.922;2023-01-28T04:57:56;4.90;;;2.60;;
53253;SDS011;39148;53.332;6.922;2023-01-28T05:00:22;5.45;;;2.35;;
53253;SDS011;39148;53.332;6.922;2023-01-28T05:02:48;3.70;;;2.10;;
53253;SDS011;39148;53.332;6.922;2023-01-28T05:05:16;4.40;;;2.40;;
53253;SDS011;39148;53.332;6.922;2023-01-28T05:07:42;4.18;;;2.58;;
53253;SDS011;39148;53.332;6.922;2023-01-28T05:10:09;3.70;;;2.53;;
53253;SDS011;39148;53.332;6.922;2023-01-28T05:12:35;4.63;;;2.42;;
53253;SDS011;39148;53.332;6.922;2023-01-28T05:15:01;4.10;;;2.03;;
53253;SDS011;39148;53.332;6.922;2023-01-28T05:17:28;5.07;;;2.60;;
53253;SDS011;39148;53.332;6.922;2023-01-28T05:19:54;3.92;;;2.38;;
53253;SDS011;39148;53.332;6.922;2023-01-28T05:22:20;4.93;;;2.50;;
53253;SDS011;39148;53.332;6.922;2023-01-28T05:24:46;5.53;;;2.35;;
53253;SDS011;39148;53.332;6.922;2023-01-28T05:27:12;4.88;;;2.17;;
53253;SDS011;39148;53.332;6.922;2023-01-28T05:29:38;4.68;;;2.60;;
53253;SDS011;39148;53.332;6.922;2023-01-28T05:32:04;3.65;;;2.50;;
53253;SDS011;39148;53.332;6.922;2023-01-28T05:34:30;5.03;;;2.60;;
53253;SDS011;39148;53.332;6.922;2023-01-28T05:36:56;5.35;;;2.58;;
53253;SDS011;39148;53.332;6.922;2023-01-28T05:39:22;4.00;;;2.40;;
53253;SDS011;39148;53.332;6.922;2023-01-28T05:41:48;4.00;;;2.60;;
53253;SDS011;39148;53.332;6.922;2023-01-28T05:44:14;4.68;;;2.60;;
53253;SDS011;39148;53.332;6.922;2023-01-28T05:46:40;5.07;;;2.88;;
53253;SDS011;39148;53.332;6.922;2023-01-28T05:49:09;3.92;;;2.55;;
53253;SDS011;39148;53.332;6.922;2023-01-28T05:51:37;3.90;;;2.45;;
53253;SDS011;39148;53.332;6.922;2023-01-28T05:54:04;4.53;;;2.55;;
53253;SDS011;39148;53.332;6.922;2023-01-28T05:56:30;5.15;;;2.58;;
53253;SDS011;39148;53.332;6.922;2023-01-28T05:58:57;4.20;;;2.65;;
53253;SDS011;39148;53.332;6.922;2023-01-28T06:01:23;4.55;;;2.50;;
53253;SDS011;39148;53.332;6.922;2023-01-28T06:03:50;4.32;;;2.72;;
53253;SDS011;39148;53.332;6.922;2023-01-28T06:06:16;3.78;;;2.50;;
53253;SDS011;39148;53.332;6.922;2023-01-28T06:08:41;5.50;;;2.90;;
53253;SDS011;39148;53.332;6.922;2023-01-28T06:11:07;4.45;;;2.80;;
53253;SDS011;39148;53.332;6.922;2023-01-28T06:13:33;3.58;;;2.53;;
53253;SDS011;39148;53.332;6.922;2023-01-28T06:15:59;4.65;;;2.70;;
53253;SDS011;39148;53.332;6.922;2023-01-28T06:18:25;4.72;;;2.70;;
53253;SDS011;39148;53.332;6.922;2023-01-28T06:20:51;5.07;;;2.50;;
53253;SDS011;39148;53.332;6.922;2023-01-28T06:23:17;5.90;;;3.08;;
53253;SDS011;39148;53.332;6.922;2023-01-28T06:25:43;4.30;;;2.90;;
53253;SDS011;39148;53.332;6.922;2023-01-28T06:28:08;3.85;;;2.53;;
53253;SDS011;39148;53.332;6.922;2023-01-28T06:30:34;4.85;;;2.78;;
53253;SDS011;39148;53.332;6.922;2023-01-28T06:33:00;4.35;;;2.67;;
53253;SDS011;39148;53.332;6.922;2023-01-28T06:35:26;4.35;;;2.50;;
53253;SDS011;39148;53.332;6.922;2023-01-28T06:37:53;3.88;;;2.50;;
53253;SDS011;39148;53.332;6.922;2023-01-28T06:40:18;4.88;;;2.80;;
53253;SDS011;39148;53.332;6.922;2023-01-28T06:42:45;4.18;;;2.67;;
53253;SDS011;39148;53.332;6.922;2023-01-28T06:45:11;6.03;;;2.70;;
53253;SDS011;39148;53.332;6.922;2023-01-28T06:47:38;4.45;;;2.70;;
53253;SDS011;39148;53.332;6.922;2023-01-28T06:50:04;4.97;;;2.88;;
53253;SDS011;39148;53.332;6.922;2023-01-28T06:52:30;4.57;;;2.95;;
53253;SDS011;39148;53.332;6.922;2023-01-28T06:54:57;4.18;;;2.75;;
53253;SDS011;39148;53.332;6.922;2023-01-28T06:57:22;4.38;;;2.80;;
53253;SDS011;39148;53.332;6.922;2023-01-28T06:59:48;4.35;;;2.72;;
53253;SDS011;39148;53.332;6.922;2023-01-28T07:02:14;4.13;;;2.65;;
53253;SDS011;39148;53.332;6.922;2023-01-28T07:04:40;3.90;;;2.40;;
53253;SDS011;39148;53.332;6.922;2023-01-28T07:07:06;4.32;;;2.65;;
53253;SDS011;39148;53.332;6.922;2023-01-28T07:09:32;4.40;;;2.65;;
53253;SDS011;39148;53.332;6.922;2023-01-28T07:11:59;4.35;;;2.78;;
53253;SDS011;39148;53.332;6.922;2023-01-28T07:14:24;4.95;;;2.72;;
53253;SDS011;39148;53.332;6.922;2023-01-28T07:16:50;3.92;;;2.47;;
53253;SDS011;39148;53.332;6.922;2023-01-28T07:19:16;4.32;;;2.53;;
53253;SDS011;39148;53.332;6.922;2023-01-28T07:21:42;3.92;;;2.58;;
53253;SDS011;39148;53.332;6.922;2023-01-28T07:24:08;4.45;;;2.45;;
53253;SDS011;39148;53.332;6.922;2023-01-28T07:26:33;4.75;;;3.03;;
53253;SDS011;39148;53.332;6.922;2023-01-28T07:29:00;4.50;;;2.80;;
53253;SDS011;39148;53.332;6.922;2023-01-28T07:31:26;4.43;;;2.85;;
53253;SDS011;39148;53.332;6.922;2023-01-28T07:33:51;3.70;;;2.50;;
53253;SDS011;39148;53.332;6.922;2023-01-28T07:36:17;4.55;;;2.60;;
53253;SDS011;39148;53.332;6.922;2023-01-28T07:38:43;3.92;;;2.40;;
53253;SDS011;39148;53.332;6.922;2023-01-28T07:41:09;4.43;;;2.47;;
53253;SDS011;39148;53.332;6.922;2023-01-28T07:43:35;5.93;;;2.88;;
53253;SDS011;39148;53.332;6.922;2023-01-28T07:46:01;4.18;;;2.70;;
53253;SDS011;39148;53.332;6.922;2023-01-28T07:48:27;4.20;;;2.72;;
53253;SDS011;39148;53.332;6.922;2023-01-28T07:50:52;4.93;;;2.70;;
53253;SDS011;39148;53.332;6.922;2023-01-28T07:53:18;3.35;;;2.30;;
53253;SDS011;39148;53.332;6.922;2023-01-28T07:55:44;5.85;;;2.83;;
53253;SDS011;39148;53.332;6.922;2023-01-28T07:58:11;4.40;;;2.90;;
53253;SDS011;39148;53.332;6.922;2023-01-28T08:00:37;3.88;;;2.78;;
53253;SDS011;39148;53.332;6.922;2023-01-28T08:03:08;4.40;;;2.75;;
53253;SDS011;39148;53.332;6.922;2023-01-28T08:05:39;4.75;;;2.70;;
53253;SDS011;39148;53.332;6.922;2023-01-28T08:08:06;4.43;;;2.92;;
53253;SDS011;39148;53.332;6.922;2023-01-28T08:10:33;4.93;;;2.85;;
53253;SDS011;39148;53.332;6.922;2023-01-28T08:12:58;5.43;;;3.00;;
53253;SDS011;39148;53.332;6.922;2023-01-28T08:15:24;5.00;;;2.88;;
53253;SDS011;39148;53.332;6.922;2023-01-28T08:17:52;4.50;;;2.80;;
53253;SDS011;39148;53.332;6.922;2023-01-28T08:20:18;4.90;;;3.30;;
53253;SDS011;39148;53.332;6.922;2023-01-28T08:22:44;4.30;;;3.08;;
53253;SDS011;39148;53.332;6.922;2023-01-28T08:25:10;4.88;;;3.03;;
53253;SDS011;39148;53.332;6.922;2023-01-28T08:27:36;4.70;;;3.28;;
53253;SDS011;39148;53.332;6.922;2023-01-28T08:30:02;5.40;;;3.25;;
53253;SDS011;39148;53.332;6.922;2023-01-28T08:32:28;5.13;;;3.30;;
53253;SDS011;39148;53.332;6.922;2023-01-28T08:34:55;4.30;;;3.00;;
53253;SDS011;39148;53.332;6.922;2023-01-28T08:37:21;4.97;;;3.05;;
53253;SDS011;39148;53.332;6.922;2023-01-28T08:39:47;5.18;;;3.38;;
53253;SDS011;39148;53.332;6.922;2023-01-28T08:42:14;5.45;;;3.65;;
53253;SDS011;39148;53.332;6.922;2023-01-28T08:44:40;5.32;;;3.47;;
53253;SDS011;39148;53.332;6.922;2023-01-28T08:47:06;5.43;;;3.58;;
53253;SDS011;39148;53.332;6.922;2023-01-28T08:49:32;5.50;;;3.60;;
53253;SDS011;39148;53.332;6.922;2023-01-28T08:51:58;5.30;;;3.28;;
53253;SDS011;39148;53.332;6.922;2023-01-28T08:54:24;5.22;;;3.50;;
53253;SDS011;39148;53.332;6.922;2023-01-28T08:56:50;6.32;;;3.50;;
53253;SDS011;39148;53.332;6.922;2023-01-28T08:59:16;5.18;;;3.30;;
53253;SDS011;39148;53.332;6.922;2023-01-28T09:01:42;5.43;;;3.63;;
53253;SDS011;39148;53.332;6.922;2023-01-28T09:04:08;6.65;;;3.70;;
53253;SDS011;39148;53.332;6.922;2023-01-28T09:06:34;5.82;;;3.83;;
53253;SDS011;39148;53.332;6.922;2023-01-28T09:09:00;4.93;;;3.55;;
53253;SDS011;39148;53.332;6.922;2023-01-28T09:11:27;5.25;;;3.88;;
53253;SDS011;39148;53.332;6.922;2023-01-28T09:13:53;5.85;;;3.83;;
53253;SDS011;39148;53.332;6.922;2023-01-28T09:16:21;6.45;;;4.00;;
53253;SDS011;39148;53.332;6.922;2023-01-28T09:18:47;5.97;;;3.42;;
53253;SDS011;39148;53.332;6.922;2023-01-28T09:21:13;5.82;;;3.80;;
53253;SDS011;39148;53.332;6.922;2023-01-28T09:23:39;5.82;;;3.85;;
53253;SDS011;39148;53.332;6.922;2023-01-28T09:26:05;7.05;;;4.00;;
53253;SDS011;39148;53.332;6.922;2023-01-28T09:28:33;5.68;;;3.88;;
53253;SDS011;39148;53.332;6.922;2023-01-28T09:31:00;6.43;;;3.85;;
53253;SDS011;39148;53.332;6.922;2023-01-28T09:33:26;4.75;;;3.42;;
53253;SDS011;39148;53.332;6.922;2023-01-28T09:35:52;5.20;;;3.63;;
53253;SDS011;39148;53.332;6.922;2023-01-28T09:38:18;5.20;;;4.00;;
53253;SDS011;39148;53.332;6.922;2023-01-28T09:40:44;6.00;;;3.88;;
53253;SDS011;39148;53.332;6.922;2023-01-28T09:43:23;5.57;;;4.03;;
53253;SDS011;39148;53.332;6.922;2023-01-28T09:45:51;5.10;;;3.60;;
53253;SDS011;39148;53.332;6.922;2023-01-28T09:48:20;4.85;;;3.38;;
53253;SDS011;39148;53.332;6.922;2023-01-28T09:50:47;6.47;;;3.95;;
53253;SDS011;39148;53.332;6.922;2023-01-28T09:55:48;5.22;;;3.65;;
53253;SDS011;39148;53.332;6.922;2023-01-28T09:58:15;6.30;;;3.90;;
53253;SDS011;39148;53.332;6.922;2023-01-28T10:05:55;5.63;;;3.85;;
53253;SDS011;39148;53.332;6.922;2023-01-28T10:13:47;5.50;;;3.75;;
53253;SDS011;39148;53.332;6.922;2023-01-28T10:19:06;5.00;;;3.33;;
53253;SDS011;39148;53.332;6.922;2023-01-28T10:21:42;6.53;;;3.33;;
53253;SDS011;39148;53.332;6.922;2023-01-28T10:24:25;5.05;;;3.30;;
53253;SDS011;39148;53.332;6.922;2023-01-28T10:26:57;5.60;;;3.58;;
53253;SDS011;39148;53.332;6.922;2023-01-28T10:29:25;5.20;;;3.60;;
53253;SDS011;39148;53.332;6.922;2023-01-28T10:31:53;5.55;;;3.35;;
53253;SDS011;39148;53.332;6.922;2023-01-28T10:34:19;5.20;;;3.92;;
53253;SDS011;39148;53.332;6.922;2023-01-28T10:36:46;4.88;;;3.50;;
53253;SDS011;39148;53.332;6.922;2023-01-28T10:39:13;5.03;;;3.20;;
53253;SDS011;39148;53.332;6.922;2023-01-28T10:41:40;5.07;;;3.50;;
53253;SDS011;39148;53.332;6.922;2023-01-28T10:44:10;4.65;;;3.40;;
53253;SDS011;39148;53.332;6.922;2023-01-28T10:46:38;5.32;;;3.78;;
53253;SDS011;39148;53.332;6.922;2023-01-28T10:49:12;5.03;;;3.15;;
53253;SDS011;39148;53.332;6.922;2023-01-28T10:51:40;5.78;;;3.78;;
53253;SDS011;39148;53.332;6.922;2023-01-28T10:54:20;4.90;;;3.13;;
53253;SDS011;39148;53.332;6.922;2023-01-28T10:56:49;5.28;;;3.28;;
53253;SDS011;39148;53.332;6.922;2023-01-28T10:59:19;5.35;;;3.53;;
53253;SDS011;39148;53.332;6.922;2023-01-28T11:02:32;4.85;;;3.35;;
53253;SDS011;39148;53.332;6.922;2023-01-28T11:04:33;5.57;;;3.20;;
53253;SDS011;39148;53.332;6.922;2023-01-28T11:07:03;5.57;;;3.42;;
53253;SDS011;39148;53.332;6.922;2023-01-28T11:09:33;5.57;;;3.30;;
53253;SDS011;39148;53.332;6.922;2023-01-28T11:12:10;5.40;;;3.67;;
53253;SDS011;39148;53.332;6.922;2023-01-28T11:14:36;5.78;;;3.50;;
53253;SDS011;39148;53.332;6.922;2023-01-28T11:17:02;5.35;;;3.88;;
53253;SDS011;39148;53.332;6.922;2023-01-28T11:19:35;5.13;;;3.28;;
53253;SDS011;39148;53.332;6.922;2023-01-28T11:22:01;5.18;;;3.35;;
53253;SDS011;39148;53.332;6.922;2023-01-28T11:24:29;5.55;;;3.35;;
53253;SDS011;39148;53.332;6.922;2023-01-28T11:26:56;5.43;;;3.65;;
53253;SDS011;39148;53.332;6.922;2023-01-28T11:29:27;5.22;;;3.17;;
53253;SDS011;39148;53.332;6.922;2023-01-28T11:31:55;5.07;;;3.35;;
53253;SDS011;39148;53.332;6.922;2023-01-28T11:34:24;5.53;;;3.65;;
53253;SDS011;39148;53.332;6.922;2023-01-28T11:36:51;5.80;;;3.40;;
53253;SDS011;39148;53.332;6.922;2023-01-28T11:39:27;5.85;;;3.60;;
53253;SDS011;39148;53.332;6.922;2023-01-28T11:41:54;5.03;;;3.25;;
53253;SDS011;39148;53.332;6.922;2023-01-28T11:54:22;5.95;;;3.28;;
53253;SDS011;39148;53.332;6.922;2023-01-28T11:59:48;7.77;;;3.20;;
53253;SDS011;39148;53.332;6.922;2023-01-28T12:02:42;4.82;;;3.17;;
53253;SDS011;39148;53.332;6.922;2023-01-28T12:05:07;5.93;;;3.70;;
53253;SDS011;39148;53.332;6.922;2023-01-28T12:10:06;5.90;;;3.90;;
53253;SDS011;39148;53.332;6.922;2023-01-28T12:18:29;6.35;;;3.30;;
53253;SDS011;39148;53.332;6.922;2023-01-28T12:38:40;5.15;;;3.00;;
53253;SDS011;39148;53.332;6.922;2023-01-28T12:41:22;5.22;;;3.58;;
53253;SDS011;39148;53.332;6.922;2023-01-28T12:44:04;5.40;;;3.00;;
53253;SDS011;39148;53.332;6.922;2023-01-28T12:51:26;5.00;;;3.50;;
53253;SDS011;39148;53.332;6.922;2023-01-28T12:56:28;4.47;;;3.05;;
53253;SDS011;39148;53.332;6.922;2023-01-28T12:59:03;5.97;;;3.58;;
53253;SDS011;39148;53.332;6.922;2023-01-28T13:01:34;5.18;;;3.50;;
53253;SDS011;39148;53.332;6.922;2023-01-28T13:06:38;7.32;;;3.47;;
53253;SDS011;39148;53.332;6.922;2023-01-28T13:09:10;5.38;;;3.17;;
53253;SDS011;39148;53.332;6.922;2023-01-28T13:11:43;4.72;;;3.15;;
53253;SDS011;39148;53.332;6.922;2023-01-28T13:14:10;4.88;;;3.08;;
53253;SDS011;39148;53.332;6.922;2023-01-28T13:16:37;5.82;;;3.28;;
53253;SDS011;39148;53.332;6.922;2023-01-28T13:19:07;5.72;;;3.35;;
53253;SDS011;39148;53.332;6.922;2023-01-28T13:21:34;6.77;;;4.03;;
53253;SDS011;39148;53.332;6.922;2023-01-28T13:26:40;4.78;;;3.13;;
53253;SDS011;39148;53.332;6.922;2023-01-28T13:34:05;5.40;;;3.35;;
53253;SDS011;39148;53.332;6.922;2023-01-28T13:38:59;7.38;;;3.70;;
53253;SDS011;39148;53.332;6.922;2023-01-28T13:41:42;5.93;;;3.67;;
53253;SDS011;39148;53.332;6.922;2023-01-28T13:46:46;6.22;;;3.50;;
53253;SDS011;39148;53.332;6.922;2023-01-28T13:49:14;6.88;;;3.75;;
53253;SDS011;39148;53.332;6.922;2023-01-28T13:51:44;5.82;;;3.50;;
53253;SDS011;39148;53.332;6.922;2023-01-28T13:54:13;6.10;;;3.43;;
53253;SDS011;39148;53.332;6.922;2023-01-28T13:56:47;8.70;;;4.35;;
53253;SDS011;39148;53.332;6.922;2023-01-28T14:01:54;6.38;;;3.63;;
53253;SDS011;39148;53.332;6.922;2023-01-28T14:17:43;6.78;;;3.83;;
53253;SDS011;39148;53.332;6.922;2023-01-28T14:20:23;7.75;;;4.22;;
53253;SDS011;39148;53.332;6.922;2023-01-28T14:22:56;6.82;;;4.15;;
53253;SDS011;39148;53.332;6.922;2023-01-28T14:31:09;7.70;;;4.50;;
53253;SDS011;39148;53.332;6.922;2023-01-28T14:33:36;7.07;;;4.20;;
53253;SDS011;39148;53.332;6.922;2023-01-28T14:36:03;6.03;;;3.60;;
53253;SDS011;39148;53.332;6.922;2023-01-28T14:38:37;5.20;;;3.53;;
53253;SDS011;39148;53.332;6.922;2023-01-28T14:41:04;6.80;;;3.78;;
53253;SDS011;39148;53.332;6.922;2023-01-28T14:43:30;6.32;;;3.95;;
53253;SDS011;39148;53.332;6.922;2023-01-28T14:59:12;6.38;;;3.78;;
53253;SDS011;39148;53.332;6.922;2023-01-28T15:01:44;6.83;;;4.10;;
53253;SDS011;39148;53.332;6.922;2023-01-28T15:04:30;5.90;;;3.65;;
53253;SDS011;39148;53.332;6.922;2023-01-28T15:07:11;5.65;;;3.40;;
53253;SDS011;39148;53.332;6.922;2023-01-28T15:09:40;8.02;;;3.78;;
53253;SDS011;39148;53.332;6.922;2023-01-28T15:12:07;5.70;;;3.75;;
53253;SDS011;39148;53.332;6.922;2023-01-28T15:14:33;7.00;;;3.83;;
53253;SDS011;39148;53.332;6.922;2023-01-28T15:17:00;5.93;;;3.70;;
53253;SDS011;39148;53.332;6.922;2023-01-28T15:19:35;6.90;;;4.38;;
53253;SDS011;39148;53.332;6.922;2023-01-28T15:22:03;5.82;;;3.92;;
53253;SDS011;39148;53.332;6.922;2023-01-28T15:24:32;7.35;;;3.70;;
53253;SDS011;39148;53.332;6.922;2023-01-28T15:26:59;6.88;;;4.22;;
53253;SDS011;39148;53.332;6.922;2023-01-28T15:29:33;7.20;;;3.97;;
53253;SDS011;39148;53.332;6.922;2023-01-28T15:32:00;6.53;;;3.88;;
53253;SDS011;39148;53.332;6.922;2023-01-28T15:34:26;6.32;;;3.85;;
53253;SDS011;39148;53.332;6.922;2023-01-28T15:36:56;6.28;;;3.78;;
53253;SDS011;39148;53.332;6.922;2023-01-28T15:39:22;5.57;;;3.33;;
53253;SDS011;39148;53.332;6.922;2023-01-28T15:41:53;6.30;;;3.55;;
53253;SDS011;39148;53.332;6.922;2023-01-28T15:44:34;6.20;;;3.45;;
53253;SDS011;39148;53.332;6.922;2023-01-28T15:47:15;7.15;;;4.05;;
53253;SDS011;39148;53.332;6.922;2023-01-28T15:49:43;6.00;;;3.47;;
53253;SDS011;39148;53.332;6.922;2023-01-28T15:52:10;5.90;;;3.72;;
53253;SDS011;39148;53.332;6.922;2023-01-28T15:54:39;6.10;;;3.75;;
53253;SDS011;39148;53.332;6.922;2023-01-28T15:59:45;6.07;;;3.60;;
53253;SDS011;39148;53.332;6.922;2023-01-28T16:04:41;6.05;;;3.63;;
53253;SDS011;39148;53.332;6.922;2023-01-28T16:07:07;7.68;;;4.55;;
53253;SDS011;39148;53.332;6.922;2023-01-28T16:09:33;6.15;;;3.88;;
53253;SDS011;39148;53.332;6.922;2023-01-28T16:12:03;6.70;;;3.45;;
53253;SDS011;39148;53.332;6.922;2023-01-28T16:14:33;5.60;;;3.42;;
53253;SDS011;39148;53.332;6.922;2023-01-28T16:16:59;6.85;;;3.95;;
53253;SDS011;39148;53.332;6.922;2023-01-28T16:21:57;6.50;;;4.00;;
53253;SDS011;39148;53.332;6.922;2023-01-28T16:24:25;6.03;;;3.45;;
53253;SDS011;39148;53.332;6.922;2023-01-28T16:29:26;6.72;;;3.85;;
53253;SDS011;39148;53.332;6.922;2023-01-28T16:31:53;6.55;;;4.25;;
53253;SDS011;39148;53.332;6.922;2023-01-28T16:34:19;8.65;;;4.00;;
53253;SDS011;39148;53.332;6.922;2023-01-28T16:36:45;6.95;;;3.92;;
53253;SDS011;39148;53.332;6.922;2023-01-28T16:39:10;6.45;;;3.90;;
53253;SDS011;39148;53.332;6.922;2023-01-28T16:41:37;6.45;;;4.28;;
53253;SDS011;39148;53.332;6.922;2023-01-28T16:44:06;6.38;;;3.88;;
53253;SDS011;39148;53.332;6.922;2023-01-28T16:46:32;7.70;;;4.30;;
53253;SDS011;39148;53.332;6.922;2023-01-28T16:48:58;6.32;;;3.65;;
53253;SDS011;39148;53.332;6.922;2023-01-28T16:51:24;6.07;;;3.67;;
53253;SDS011;39148;53.332;6.922;2023-01-28T16:53:50;6.55;;;3.50;;
53253;SDS011;39148;53.332;6.922;2023-01-28T16:56:17;6.57;;;4.25;;
53253;SDS011;39148;53.332;6.922;2023-01-28T16:58:44;6.10;;;3.97;;
53253;SDS011;39148;53.332;6.922;2023-01-28T17:01:10;6.25;;;3.88;;
53253;SDS011;39148;53.332;6.922;2023-01-28T17:03:36;7.07;;;4.22;;
53253;SDS011;39148;53.332;6.922;2023-01-28T17:06:03;7.43;;;3.88;;
53253;SDS011;39148;53.332;6.922;2023-01-28T17:08:29;7.00;;;4.20;;
53253;SDS011;39148;53.332;6.922;2023-01-28T17:10:55;7.22;;;4.07;;
53253;SDS011;39148;53.332;6.922;2023-01-28T17:13:22;6.35;;;3.97;;
53253;SDS011;39148;53.332;6.922;2023-01-28T17:15:48;6.32;;;3.67;;
53253;SDS011;39148;53.332;6.922;2023-01-28T17:18:14;6.28;;;3.50;;
53253;SDS011;39148;53.332;6.922;2023-01-28T17:20:40;6.90;;;3.90;;
53253;SDS011;39148;53.332;6.922;2023-01-28T17:23:07;6.13;;;3.80;;
53253;SDS011;39148;53.332;6.922;2023-01-28T17:25:38;6.00;;;3.58;;